Have a Safe July 4th! 

Flight Track Log - Related Links

Times and Time Zones

All times are in EDT time to prevent confusion due to time zone crossing. See the HBH3243 flight status page for this flight to view local times or setup timezone preferences in your user account.

Time Position Orientation Groundspeed Altitude Reporting Facility
EDT Latitude Longitude Course Direction KTS MPH feet Rate Location/Type
Thu 03:21:00 AM 37.6336 115.1448 151° Southeast  Level Estimated
Thu 03:22:00 AM 37.5526 115.2003 152° Southeast  Level Estimated
Thu 03:23:00 AM 37.4716 115.2556 152° Southeast  Level Estimated
Thu 03:24:00 AM 37.3905 115.3109 152° Southeast  Level Estimated
Thu 03:25:00 AM 37.3123 115.3640 152° Southeast  Level Estimated
Thu 03:26:00 AM 37.2342 115.4170 152° Southeast  Level Estimated
Thu 03:27:00 AM 37.1559 115.4699 152° Southeast  Level Estimated
Thu 03:28:00 AM 37.0777 115.5227 152° Southeast  Level Estimated
Thu 03:29:00 AM 36.9995 115.5754 152° Southeast  Level Estimated
Thu 03:30:00 AM 36.9212 115.6279 152° Southeast  Level Estimated
Thu 03:31:00 AM 36.8429 115.6804 152° Southeast  Level Estimated
Thu 03:32:00 AM 36.7646 115.7328 152° Southeast  Level Estimated
Thu 03:33:00 AM 36.6862 115.7850 152° Southeast  Level Estimated
Thu 03:34:00 AM 36.6079 115.8372 152° Southeast  Level Estimated
Thu 03:35:00 AM 36.5295 115.8892 152° Southeast  Level Estimated
Thu 03:36:00 AM 36.4511 115.9411 152° Southeast  Level Estimated
Thu 03:37:00 AM 36.3726 115.9930 152° Southeast  Level Estimated
Thu 03:38:00 AM 36.2942 116.0447 152° Southeast  Level Estimated
Thu 03:39:00 AM 36.2157 116.0963 152° Southeast  Level Estimated
Thu 03:40:00 AM 36.1372 116.1478 152° Southeast  Level Estimated
Thu 03:41:00 AM 36.0587 116.1992 152° Southeast  Level Estimated
Thu 03:42:00 AM 35.9801 116.2505 152° Southeast  Level Estimated
Thu 03:43:00 AM 35.9015 116.3018 152° Southeast  Level Estimated
Thu 03:44:00 AM 35.8229 116.3529 152° Southeast  Level Estimated
Thu 03:45:00 AM 35.7443 116.4039 152° Southeast  Level Estimated
Thu 03:46:00 AM 35.6657 116.4548 152° Southeast  Level Estimated
Thu 03:47:00 AM 35.5871 116.5056 152° Southeast  Level Estimated
Thu 03:48:00 AM 35.5084 116.5563 152° Southeast  Level Estimated
Thu 03:49:00 AM 35.4297 116.6069 152° Southeast  Level Estimated
Thu 03:50:00 AM 35.3510 116.6574 152° Southeast  Level Estimated
Thu 03:51:00 AM 35.2722 116.7078 152° Southeast  Level Estimated
Thu 03:52:00 AM 35.1935 116.7581 152° Southeast  Level Estimated
Thu 03:53:00 AM 35.1147 116.8083 152° Southeast  Level Estimated
Thu 03:54:00 AM 35.0359 116.8585 152° Southeast  Level Estimated
Thu 03:55:00 AM 34.9571 116.9085 153° Southeast  Level Estimated
Thu 03:56:00 AM 34.8782 116.9584 153° Southeast  Level Estimated
Thu 03:57:00 AM 34.7994 117.0082 153° Southeast  Level Estimated
Thu 03:58:00 AM 34.7205 117.0580 153° Southeast  Level Estimated
Thu 03:59:00 AM 34.6416 117.1076 153° Southeast  Level Estimated
Thu 04:00:00 AM 34.5626 117.1572 153° Southeast  Level Estimated
Thu 04:01:00 AM 34.4837 117.2066 153° Southeast  Level Estimated
Thu 04:02:00 AM 34.4047 117.2560 153° Southeast  Level Estimated
Thu 04:03:00 AM 34.3258 117.3052 153° Southeast  Level Estimated
Thu 04:04:00 AM 34.2468 117.3544 153° Southeast  Level Estimated
Thu 04:05:00 AM 34.1677 117.4035 153° Southeast  Level Estimated
Thu 04:06:00 AM 34.0887 117.4525 153° Southeast  Level Estimated
Thu 04:07:00 AM 34.0096 117.5014 153° Southeast  Level Estimated
Thu 04:08:00 AM 33.9305 117.5502 153° Southeast  Level Estimated
Thu 04:09:00 AM 33.8515 117.5989 153° Southeast  Level Estimated
Thu 04:10:00 AM 33.7723 117.6475 153° Southeast  Level Estimated
Thu 04:11:00 AM 33.6932 117.6960 153° Southeast  Level Estimated
Thu 04:12:00 AM 33.6140 117.7445 153° Southeast  Level Estimated
Thu 04:13:00 AM 33.5349 117.7928 153° Southeast  Level Estimated
Thu 04:14:00 AM 33.4557 117.8411 153° Southeast  Level Estimated
Thu 04:15:00 AM 33.3765 117.8893 153° Southeast  Level Estimated
Thu 04:16:00 AM 33.2972 117.9374 153° Southeast  Level Estimated
Thu 04:17:00 AM 33.2180 117.9854 153° Southeast  Level Estimated
Thu 04:18:00 AM 33.1387 118.0333 153° Southeast  Level Estimated
Thu 04:19:00 AM 33.0594 118.0811 153° Southeast  Level Estimated
Thu 04:20:00 AM 32.9801 118.1289 153° Southeast  Level Estimated
Thu 04:21:00 AM 32.9008 118.1765 153° Southeast  Level Estimated
Thu 04:22:00 AM 32.8215 118.2241 153° Southeast  Level Estimated
Thu 04:23:00 AM 32.7421 118.2716 153° Southeast  Level Estimated
Thu 04:24:00 AM 32.6627 118.3190 153° Southeast  Level Estimated
Thu 04:25:00 AM 32.5833 118.3663 153° Southeast  Level Estimated
Thu 04:26:00 AM 32.5039 118.4136 153° Southeast  Level Estimated
Thu 04:27:00 AM 32.4245 118.4607 153° Southeast  Level Estimated
Thu 04:28:00 AM 32.3450 118.5078 153° Southeast  Level Estimated
Thu 04:29:00 AM 32.2656 118.5548 153° Southeast  Level Estimated
Thu 04:30:00 AM 32.1861 118.6017 153° Southeast  Level Estimated
Thu 04:31:00 AM 32.1066 118.6485 153° Southeast  Level Estimated
Thu 04:32:00 AM 32.0271 118.6952 154° Southeast  Level Estimated
Thu 04:33:00 AM 31.9475 118.7419 154° Southeast  Level Estimated
Thu 04:34:00 AM 31.8680 118.7885 154° Southeast  Level Estimated
Thu 04:35:00 AM 31.7884 118.8350 154° Southeast  Level Estimated
Thu 04:36:00 AM 31.7421 118.8620 154° Southeast  Level Estimated
Thu 04:37:00 AM 31.7421 118.8620 North  Level Estimated
Thu 04:38:00 AM 31.7421 118.8620 North  Level Estimated
Thu 04:39:00 AM 31.7421 118.8620 North  Level Estimated
Thu 04:40:00 AM 31.7421 118.8620 North  Level Estimated
Thu 04:41:00 AM 31.7421 118.8620 North  Level Estimated
Thu 04:42:00 AM 31.7421 118.8620 North  Level Estimated
Thu 04:43:00 AM 31.7421 118.8620 North  Level Estimated
Thu 04:44:00 AM 31.7421 118.8620 North  Level Estimated
Thu 04:45:00 AM 31.7421 118.8620 North  Level Estimated
Thu 04:46:00 AM 31.7421 118.8620 North  Level Estimated
Thu 04:47:00 AM 31.7421 118.8620 North  Level Estimated
Thu 04:48:00 AM 31.7421 118.8620 North  Level Estimated
Thu 04:49:00 AM 31.7421 118.8620 North  Level Estimated
Thu 04:50:00 AM 31.7421 118.8620 North  Level Estimated
Thu 04:51:00 AM 31.7421 118.8620 North  Level Estimated
Thu 04:52:00 AM 31.7421 118.8620 North  Level Estimated

Login

Don't have an account? Register now (free) for customized features, flight alerts, and more!